sensor_id;sensor_type;location;lat;lon;timestamp;P1;durP1;ratioP1;P2;durP2;ratioP2
60851;SDS011;48553;50.766;2.900;2023-03-03T00:01:08;27.15;;;12.35;;
60851;SDS011;48553;50.766;2.900;2023-03-03T00:04:09;30.33;;;13.18;;
60851;SDS011;48553;50.766;2.900;2023-03-03T00:07:10;29.60;;;13.27;;
60851;SDS011;48553;50.766;2.900;2023-03-03T00:10:11;27.30;;;12.68;;
60851;SDS011;48553;50.766;2.900;2023-03-03T00:13:16;28.00;;;12.13;;
60851;SDS011;48553;50.766;2.900;2023-03-03T00:16:34;27.75;;;12.18;;
60851;SDS011;48553;50.766;2.900;2023-03-03T00:19:37;30.15;;;12.98;;
60851;SDS011;48553;50.766;2.900;2023-03-03T00:22:40;29.92;;;12.57;;
60851;SDS011;48553;50.766;2.900;2023-03-03T00:25:43;30.05;;;12.63;;
60851;SDS011;48553;50.766;2.900;2023-03-03T00:28:46;29.98;;;12.63;;
60851;SDS011;48553;50.766;2.900;2023-03-03T00:31:48;27.80;;;12.05;;
60851;SDS011;48553;50.766;2.900;2023-03-03T00:34:49;28.35;;;11.52;;
60851;SDS011;48553;50.766;2.900;2023-03-03T00:37:58;30.77;;;12.35;;
60851;SDS011;48553;50.766;2.900;2023-03-03T00:41:00;30.77;;;12.70;;
60851;SDS011;48553;50.766;2.900;2023-03-03T00:44:01;27.48;;;12.18;;
60851;SDS011;48553;50.766;2.900;2023-03-03T00:47:37;31.13;;;12.87;;
60851;SDS011;48553;50.766;2.900;2023-03-03T00:50:37;29.40;;;12.15;;
60851;SDS011;48553;50.766;2.900;2023-03-03T00:53:41;31.80;;;12.50;;
60851;SDS011;48553;50.766;2.900;2023-03-03T00:56:42;30.92;;;12.52;;
60851;SDS011;48553;50.766;2.900;2023-03-03T00:59:42;30.10;;;12.60;;
60851;SDS011;48553;50.766;2.900;2023-03-03T01:02:43;31.38;;;12.93;;
60851;SDS011;48553;50.766;2.900;2023-03-03T01:05:45;32.13;;;13.07;;
60851;SDS011;48553;50.766;2.900;2023-03-03T01:08:46;29.45;;;11.95;;
60851;SDS011;48553;50.766;2.900;2023-03-03T01:11:46;27.92;;;12.38;;
60851;SDS011;48553;50.766;2.900;2023-03-03T01:14:47;29.70;;;12.93;;
60851;SDS011;48553;50.766;2.900;2023-03-03T01:17:49;30.27;;;12.52;;
60851;SDS011;48553;50.766;2.900;2023-03-03T01:20:49;32.40;;;13.00;;
60851;SDS011;48553;50.766;2.900;2023-03-03T01:23:50;31.20;;;12.15;;
60851;SDS011;48553;50.766;2.900;2023-03-03T01:26:50;31.17;;;13.43;;
60851;SDS011;48553;50.766;2.900;2023-03-03T01:29:51;30.65;;;12.15;;
60851;SDS011;48553;50.766;2.900;2023-03-03T01:32:51;32.10;;;13.05;;
60851;SDS011;48553;50.766;2.900;2023-03-03T01:35:52;29.40;;;12.10;;
60851;SDS011;48553;50.766;2.900;2023-03-03T01:38:52;30.73;;;12.93;;
60851;SDS011;48553;50.766;2.900;2023-03-03T01:41:53;28.77;;;12.18;;
60851;SDS011;48553;50.766;2.900;2023-03-03T01:48:35;29.08;;;12.48;;
60851;SDS011;48553;50.766;2.900;2023-03-03T01:51:44;30.92;;;11.80;;
60851;SDS011;48553;50.766;2.900;2023-03-03T01:54:58;29.90;;;11.60;;
60851;SDS011;48553;50.766;2.900;2023-03-03T01:58:08;29.60;;;12.35;;
60851;SDS011;48553;50.766;2.900;2023-03-03T02:01:16;27.75;;;12.15;;
60851;SDS011;48553;50.766;2.900;2023-03-03T02:04:20;29.42;;;12.00;;
60851;SDS011;48553;50.766;2.900;2023-03-03T02:07:21;31.20;;;11.95;;
60851;SDS011;48553;50.766;2.900;2023-03-03T02:10:24;29.17;;;11.95;;
60851;SDS011;48553;50.766;2.900;2023-03-03T02:13:26;27.67;;;11.85;;
60851;SDS011;48553;50.766;2.900;2023-03-03T02:16:26;29.80;;;12.88;;
60851;SDS011;48553;50.766;2.900;2023-03-03T02:23:06;27.48;;;11.55;;
60851;SDS011;48553;50.766;2.900;2023-03-03T02:26:28;30.35;;;12.48;;
60851;SDS011;48553;50.766;2.900;2023-03-03T02:29:30;28.23;;;12.38;;
60851;SDS011;48553;50.766;2.900;2023-03-03T02:32:31;30.63;;;12.40;;
60851;SDS011;48553;50.766;2.900;2023-03-03T02:35:36;32.00;;;11.93;;
60851;SDS011;48553;50.766;2.900;2023-03-03T02:38:49;28.42;;;12.15;;
60851;SDS011;48553;50.766;2.900;2023-03-03T02:45:06;29.23;;;12.32;;
60851;SDS011;48553;50.766;2.900;2023-03-03T02:48:07;30.25;;;12.52;;
60851;SDS011;48553;50.766;2.900;2023-03-03T02:51:07;32.13;;;13.00;;
60851;SDS011;48553;50.766;2.900;2023-03-03T02:54:08;31.85;;;12.98;;
60851;SDS011;48553;50.766;2.900;2023-03-03T02:57:10;33.13;;;12.70;;
60851;SDS011;48553;50.766;2.900;2023-03-03T03:00:10;26.92;;;12.15;;
60851;SDS011;48553;50.766;2.900;2023-03-03T03:03:11;31.90;;;12.82;;
60851;SDS011;48553;50.766;2.900;2023-03-03T03:06:12;26.00;;;12.05;;
60851;SDS011;48553;50.766;2.900;2023-03-03T03:09:12;28.02;;;11.25;;
60851;SDS011;48553;50.766;2.900;2023-03-03T03:12:14;31.20;;;12.70;;
60851;SDS011;48553;50.766;2.900;2023-03-03T03:15:18;30.73;;;12.50;;
60851;SDS011;48553;50.766;2.900;2023-03-03T03:18:18;31.50;;;12.45;;
60851;SDS011;48553;50.766;2.900;2023-03-03T03:21:19;29.58;;;11.98;;
60851;SDS011;48553;50.766;2.900;2023-03-03T03:24:19;28.98;;;11.73;;
60851;SDS011;48553;50.766;2.900;2023-03-03T03:27:20;30.77;;;12.32;;
60851;SDS011;48553;50.766;2.900;2023-03-03T03:30:22;31.75;;;12.30;;
60851;SDS011;48553;50.766;2.900;2023-03-03T03:33:22;28.88;;;12.02;;
60851;SDS011;48553;50.766;2.900;2023-03-03T03:36:24;28.88;;;11.60;;
60851;SDS011;48553;50.766;2.900;2023-03-03T03:39:26;27.15;;;12.10;;
60851;SDS011;48553;50.766;2.900;2023-03-03T03:42:26;29.63;;;12.02;;
60851;SDS011;48553;50.766;2.900;2023-03-03T03:45:26;29.45;;;11.50;;
60851;SDS011;48553;50.766;2.900;2023-03-03T03:48:27;27.80;;;11.38;;
60851;SDS011;48553;50.766;2.900;2023-03-03T03:51:27;24.98;;;11.15;;
60851;SDS011;48553;50.766;2.900;2023-03-03T03:54:28;28.70;;;11.40;;
60851;SDS011;48553;50.766;2.900;2023-03-03T03:57:28;24.88;;;11.35;;
60851;SDS011;48553;50.766;2.900;2023-03-03T04:00:29;27.20;;;10.98;;
60851;SDS011;48553;50.766;2.900;2023-03-03T04:03:29;25.27;;;10.93;;
60851;SDS011;48553;50.766;2.900;2023-03-03T04:06:30;26.60;;;10.45;;
60851;SDS011;48553;50.766;2.900;2023-03-03T04:09:31;22.73;;;10.27;;
60851;SDS011;48553;50.766;2.900;2023-03-03T04:12:32;23.40;;;9.95;;
60851;SDS011;48553;50.766;2.900;2023-03-03T04:15:38;26.70;;;10.13;;
60851;SDS011;48553;50.766;2.900;2023-03-03T04:18:40;21.85;;;9.70;;
60851;SDS011;48553;50.766;2.900;2023-03-03T04:21:41;22.92;;;9.40;;
60851;SDS011;48553;50.766;2.900;2023-03-03T04:24:42;22.42;;;9.52;;
60851;SDS011;48553;50.766;2.900;2023-03-03T04:27:42;23.08;;;9.55;;
60851;SDS011;48553;50.766;2.900;2023-03-03T04:30:43;20.48;;;9.15;;
60851;SDS011;48553;50.766;2.900;2023-03-03T04:33:44;20.27;;;9.25;;
60851;SDS011;48553;50.766;2.900;2023-03-03T04:36:45;21.58;;;9.50;;
60851;SDS011;48553;50.766;2.900;2023-03-03T04:39:45;22.35;;;9.95;;
60851;SDS011;48553;50.766;2.900;2023-03-03T04:42:45;18.88;;;8.80;;
60851;SDS011;48553;50.766;2.900;2023-03-03T04:45:46;21.90;;;9.32;;
60851;SDS011;48553;50.766;2.900;2023-03-03T04:48:47;20.92;;;9.50;;
60851;SDS011;48553;50.766;2.900;2023-03-03T04:51:47;22.40;;;9.73;;
60851;SDS011;48553;50.766;2.900;2023-03-03T04:54:48;22.23;;;9.60;;
60851;SDS011;48553;50.766;2.900;2023-03-03T04:57:49;21.35;;;9.68;;
60851;SDS011;48553;50.766;2.900;2023-03-03T05:00:53;20.88;;;9.23;;
60851;SDS011;48553;50.766;2.900;2023-03-03T05:06:54;18.42;;;8.82;;
60851;SDS011;48553;50.766;2.900;2023-03-03T05:09:56;19.95;;;8.60;;
60851;SDS011;48553;50.766;2.900;2023-03-03T05:12:56;18.88;;;8.75;;
60851;SDS011;48553;50.766;2.900;2023-03-03T05:15:57;20.35;;;9.35;;
60851;SDS011;48553;50.766;2.900;2023-03-03T05:18:57;18.88;;;8.55;;
60851;SDS011;48553;50.766;2.900;2023-03-03T05:21:58;20.58;;;9.57;;
60851;SDS011;48553;50.766;2.900;2023-03-03T05:24:59;18.45;;;8.30;;
60851;SDS011;48553;50.766;2.900;2023-03-03T05:27:59;20.00;;;8.95;;
60851;SDS011;48553;50.766;2.900;2023-03-03T05:31:00;19.77;;;9.48;;
60851;SDS011;48553;50.766;2.900;2023-03-03T05:34:00;17.05;;;7.90;;
60851;SDS011;48553;50.766;2.900;2023-03-03T05:37:01;18.60;;;8.63;;
60851;SDS011;48553;50.766;2.900;2023-03-03T05:40:02;17.45;;;8.32;;
60851;SDS011;48553;50.766;2.900;2023-03-03T05:43:04;16.65;;;8.18;;
60851;SDS011;48553;50.766;2.900;2023-03-03T05:46:06;17.48;;;8.32;;
60851;SDS011;48553;50.766;2.900;2023-03-03T05:49:07;18.98;;;8.00;;
60851;SDS011;48553;50.766;2.900;2023-03-03T05:52:08;13.88;;;7.88;;
60851;SDS011;48553;50.766;2.900;2023-03-03T05:55:08;20.65;;;8.52;;
60851;SDS011;48553;50.766;2.900;2023-03-03T05:58:10;17.77;;;8.30;;
60851;SDS011;48553;50.766;2.900;2023-03-03T06:01:11;16.50;;;7.75;;
60851;SDS011;48553;50.766;2.900;2023-03-03T06:04:11;16.90;;;7.82;;
60851;SDS011;48553;50.766;2.900;2023-03-03T06:07:12;18.17;;;7.80;;
60851;SDS011;48553;50.766;2.900;2023-03-03T06:10:12;13.93;;;7.25;;
60851;SDS011;48553;50.766;2.900;2023-03-03T06:13:13;16.42;;;7.45;;
60851;SDS011;48553;50.766;2.900;2023-03-03T06:16:13;13.85;;;6.80;;
60851;SDS011;48553;50.766;2.900;2023-03-03T06:19:14;12.98;;;7.32;;
60851;SDS011;48553;50.766;2.900;2023-03-03T06:22:15;15.38;;;7.45;;
60851;SDS011;48553;50.766;2.900;2023-03-03T06:25:16;15.40;;;7.80;;
60851;SDS011;48553;50.766;2.900;2023-03-03T06:28:17;14.93;;;7.20;;
60851;SDS011;48553;50.766;2.900;2023-03-03T06:31:18;14.82;;;6.70;;
60851;SDS011;48553;50.766;2.900;2023-03-03T06:34:18;13.75;;;6.82;;
60851;SDS011;48553;50.766;2.900;2023-03-03T06:37:19;13.73;;;6.68;;
60851;SDS011;48553;50.766;2.900;2023-03-03T06:40:19;13.98;;;7.03;;
60851;SDS011;48553;50.766;2.900;2023-03-03T06:43:20;13.77;;;6.78;;
60851;SDS011;48553;50.766;2.900;2023-03-03T06:46:20;11.88;;;5.68;;
60851;SDS011;48553;50.766;2.900;2023-03-03T06:49:21;11.40;;;6.00;;
60851;SDS011;48553;50.766;2.900;2023-03-03T06:52:22;10.77;;;5.50;;
60851;SDS011;48553;50.766;2.900;2023-03-03T06:55:24;9.50;;;5.15;;
60851;SDS011;48553;50.766;2.900;2023-03-03T06:58:25;10.70;;;5.47;;
60851;SDS011;48553;50.766;2.900;2023-03-03T07:01:29;10.00;;;4.97;;
60851;SDS011;48553;50.766;2.900;2023-03-03T07:04:34;9.95;;;5.20;;
60851;SDS011;48553;50.766;2.900;2023-03-03T07:07:35;10.30;;;5.22;;
60851;SDS011;48553;50.766;2.900;2023-03-03T07:10:35;9.98;;;5.20;;
60851;SDS011;48553;50.766;2.900;2023-03-03T07:13:35;10.02;;;5.28;;
60851;SDS011;48553;50.766;2.900;2023-03-03T07:16:40;10.18;;;4.80;;
60851;SDS011;48553;50.766;2.900;2023-03-03T07:19:41;8.45;;;4.82;;
60851;SDS011;48553;50.766;2.900;2023-03-03T07:22:42;11.07;;;4.88;;
60851;SDS011;48553;50.766;2.900;2023-03-03T07:25:43;10.55;;;4.60;;
60851;SDS011;48553;50.766;2.900;2023-03-03T07:28:52;9.25;;;4.32;;
60851;SDS011;48553;50.766;2.900;2023-03-03T07:31:55;9.98;;;4.70;;
60851;SDS011;48553;50.766;2.900;2023-03-03T07:34:56;9.00;;;4.20;;
60851;SDS011;48553;50.766;2.900;2023-03-03T07:37:57;8.98;;;4.38;;
60851;SDS011;48553;50.766;2.900;2023-03-03T07:40:59;6.95;;;3.95;;
60851;SDS011;48553;50.766;2.900;2023-03-03T07:44:03;8.25;;;3.75;;
60851;SDS011;48553;50.766;2.900;2023-03-03T07:47:39;7.40;;;4.00;;
60851;SDS011;48553;50.766;2.900;2023-03-03T07:50:35;9.18;;;3.97;;
60851;SDS011;48553;50.766;2.900;2023-03-03T07:53:36;6.88;;;3.90;;
60851;SDS011;48553;50.766;2.900;2023-03-03T07:56:37;8.73;;;3.92;;
60851;SDS011;48553;50.766;2.900;2023-03-03T07:59:39;8.85;;;4.25;;
60851;SDS011;48553;50.766;2.900;2023-03-03T08:02:56;8.63;;;3.88;;
60851;SDS011;48553;50.766;2.900;2023-03-03T08:06:23;8.60;;;4.20;;
60851;SDS011;48553;50.766;2.900;2023-03-03T08:09:47;9.48;;;4.18;;
60851;SDS011;48553;50.766;2.900;2023-03-03T08:12:52;9.20;;;4.32;;
60851;SDS011;48553;50.766;2.900;2023-03-03T08:19:08;9.15;;;4.18;;
60851;SDS011;48553;50.766;2.900;2023-03-03T08:22:12;8.02;;;4.47;;
60851;SDS011;48553;50.766;2.900;2023-03-03T08:25:16;9.13;;;3.97;;
60851;SDS011;48553;50.766;2.900;2023-03-03T08:28:17;9.00;;;4.63;;
60851;SDS011;48553;50.766;2.900;2023-03-03T08:31:18;8.75;;;4.60;;
60851;SDS011;48553;50.766;2.900;2023-03-03T08:34:19;8.88;;;4.38;;
60851;SDS011;48553;50.766;2.900;2023-03-03T08:37:19;8.60;;;4.45;;
60851;SDS011;48553;50.766;2.900;2023-03-03T08:40:20;10.35;;;5.22;;
60851;SDS011;48553;50.766;2.900;2023-03-03T08:43:20;9.77;;;4.95;;
60851;SDS011;48553;50.766;2.900;2023-03-03T08:46:21;11.07;;;5.25;;
60851;SDS011;48553;50.766;2.900;2023-03-03T08:49:22;12.35;;;5.95;;
60851;SDS011;48553;50.766;2.900;2023-03-03T08:52:22;10.93;;;6.22;;
60851;SDS011;48553;50.766;2.900;2023-03-03T08:55:22;13.20;;;6.25;;
60851;SDS011;48553;50.766;2.900;2023-03-03T08:58:23;14.90;;;7.25;;
60851;SDS011;48553;50.766;2.900;2023-03-03T09:01:23;14.20;;;7.00;;
60851;SDS011;48553;50.766;2.900;2023-03-03T09:04:24;14.95;;;7.63;;
60851;SDS011;48553;50.766;2.900;2023-03-03T09:07:24;13.02;;;7.13;;
60851;SDS011;48553;50.766;2.900;2023-03-03T09:10:26;13.27;;;7.10;;
60851;SDS011;48553;50.766;2.900;2023-03-03T09:13:29;13.32;;;6.78;;
60851;SDS011;48553;50.766;2.900;2023-03-03T09:16:31;14.30;;;7.47;;
60851;SDS011;48553;50.766;2.900;2023-03-03T09:19:37;14.82;;;7.68;;
60851;SDS011;48553;50.766;2.900;2023-03-03T09:22:37;16.15;;;7.60;;
60851;SDS011;48553;50.766;2.900;2023-03-03T09:25:38;15.02;;;6.97;;
60851;SDS011;48553;50.766;2.900;2023-03-03T09:28:38;14.40;;;7.47;;
60851;SDS011;48553;50.766;2.900;2023-03-03T09:31:41;13.35;;;7.57;;
60851;SDS011;48553;50.766;2.900;2023-03-03T09:34:44;14.27;;;7.20;;
60851;SDS011;48553;50.766;2.900;2023-03-03T09:37:45;14.68;;;7.25;;
60851;SDS011;48553;50.766;2.900;2023-03-03T09:51:00;12.68;;;7.65;;
60851;SDS011;48553;50.766;2.900;2023-03-03T10:17:40;13.93;;;7.15;;
60851;SDS011;48553;50.766;2.900;2023-03-03T10:27:41;11.77;;;6.38;;
60851;SDS011;48553;50.766;2.900;2023-03-03T10:51:01;11.48;;;5.90;;
60851;SDS011;48553;50.766;2.900;2023-03-03T11:04:30;11.48;;;5.72;;
60851;SDS011;48553;50.766;2.900;2023-03-03T11:07:46;12.27;;;5.90;;
60851;SDS011;48553;50.766;2.900;2023-03-03T11:14:07;10.77;;;5.85;;
60851;SDS011;48553;50.766;2.900;2023-03-03T11:20:51;11.80;;;5.13;;
60851;SDS011;48553;50.766;2.900;2023-03-03T11:24:14;12.27;;;5.70;;
60851;SDS011;48553;50.766;2.900;2023-03-03T11:34:14;11.27;;;5.60;;
60851;SDS011;48553;50.766;2.900;2023-03-03T11:37:33;13.07;;;5.85;;
60851;SDS011;48553;50.766;2.900;2023-03-03T11:40:42;13.55;;;5.80;;
60851;SDS011;48553;50.766;2.900;2023-03-03T11:43:52;11.85;;;5.65;;
60851;SDS011;48553;50.766;2.900;2023-03-03T11:56:43;11.93;;;5.53;;
60851;SDS011;48553;50.766;2.900;2023-03-03T12:03:01;10.70;;;5.40;;
60851;SDS011;48553;50.766;2.900;2023-03-03T12:09:59;13.68;;;5.22;;
60851;SDS011;48553;50.766;2.900;2023-03-03T12:36:12;11.23;;;5.40;;
60851;SDS011;48553;50.766;2.900;2023-03-03T12:43:15;9.40;;;4.97;;
60851;SDS011;48553;50.766;2.900;2023-03-03T12:49:05;8.95;;;4.85;;
60851;SDS011;48553;50.766;2.900;2023-03-03T12:55:51;11.68;;;4.90;;
60851;SDS011;48553;50.766;2.900;2023-03-03T12:58:58;10.60;;;5.38;;
60851;SDS011;48553;50.766;2.900;2023-03-03T13:11:41;9.10;;;4.53;;
60851;SDS011;48553;50.766;2.900;2023-03-03T13:21:48;8.38;;;4.65;;
60851;SDS011;48553;50.766;2.900;2023-03-03T13:27:58;8.77;;;5.00;;
60851;SDS011;48553;50.766;2.900;2023-03-03T13:31:17;7.53;;;4.45;;
60851;SDS011;48553;50.766;2.900;2023-03-03T13:37:31;10.57;;;4.57;;
60851;SDS011;48553;50.766;2.900;2023-03-03T13:40:50;8.93;;;4.78;;
60851;SDS011;48553;50.766;2.900;2023-03-03T13:50:17;7.80;;;3.97;;
60851;SDS011;48553;50.766;2.900;2023-03-03T14:06:24;6.32;;;3.75;;
60851;SDS011;48553;50.766;2.900;2023-03-03T14:10:27;8.45;;;3.90;;
60851;SDS011;48553;50.766;2.900;2023-03-03T14:16:16;7.38;;;3.90;;
60851;SDS011;48553;50.766;2.900;2023-03-03T14:22:29;7.05;;;3.92;;
60851;SDS011;48553;50.766;2.900;2023-03-03T14:29:04;8.25;;;3.60;;
60851;SDS011;48553;50.766;2.900;2023-03-03T14:32:25;7.88;;;3.80;;
60851;SDS011;48553;50.766;2.900;2023-03-03T14:35:34;8.13;;;3.80;;
60851;SDS011;48553;50.766;2.900;2023-03-03T14:38:37;6.68;;;3.22;;
60851;SDS011;48553;50.766;2.900;2023-03-03T14:41:40;6.20;;;3.35;;
60851;SDS011;48553;50.766;2.900;2023-03-03T14:47:44;7.15;;;3.30;;
60851;SDS011;48553;50.766;2.900;2023-03-03T14:50:56;6.75;;;3.47;;
60851;SDS011;48553;50.766;2.900;2023-03-03T14:53:59;6.15;;;3.63;;
60851;SDS011;48553;50.766;2.900;2023-03-03T14:57:06;5.05;;;2.95;;
60851;SDS011;48553;50.766;2.900;2023-03-03T15:06:13;6.35;;;3.28;;
60851;SDS011;48553;50.766;2.900;2023-03-03T15:09:38;8.82;;;3.10;;
60851;SDS011;48553;50.766;2.900;2023-03-03T15:12:47;5.13;;;2.80;;
60851;SDS011;48553;50.766;2.900;2023-03-03T15:15:51;6.18;;;3.10;;
60851;SDS011;48553;50.766;2.900;2023-03-03T15:22:10;5.57;;;2.90;;
60851;SDS011;48553;50.766;2.900;2023-03-03T15:29:03;6.10;;;3.25;;
60851;SDS011;48553;50.766;2.900;2023-03-03T15:35:30;7.35;;;3.40;;
60851;SDS011;48553;50.766;2.900;2023-03-03T15:42:03;6.82;;;3.22;;
60851;SDS011;48553;50.766;2.900;2023-03-03T15:45:26;6.18;;;3.05;;
60851;SDS011;48553;50.766;2.900;2023-03-03T15:58:39;5.93;;;3.20;;
60851;SDS011;48553;50.766;2.900;2023-03-03T16:01:48;6.82;;;3.45;;
60851;SDS011;48553;50.766;2.900;2023-03-03T16:05:13;7.07;;;3.80;;
60851;SDS011;48553;50.766;2.900;2023-03-03T16:35:32;9.57;;;5.57;;
60851;SDS011;48553;50.766;2.900;2023-03-03T16:38:39;9.43;;;5.22;;
60851;SDS011;48553;50.766;2.900;2023-03-03T16:48:26;9.13;;;5.22;;
60851;SDS011;48553;50.766;2.900;2023-03-03T16:55:04;8.32;;;4.72;;
60851;SDS011;48553;50.766;2.900;2023-03-03T16:58:29;8.77;;;4.75;;
60851;SDS011;48553;50.766;2.900;2023-03-03T17:08:06;9.18;;;4.88;;
60851;SDS011;48553;50.766;2.900;2023-03-03T17:21:27;8.55;;;4.75;;
60851;SDS011;48553;50.766;2.900;2023-03-03T17:24:49;9.10;;;5.05;;
60851;SDS011;48553;50.766;2.900;2023-03-03T17:31:42;9.02;;;4.32;;
60851;SDS011;48553;50.766;2.900;2023-03-03T17:38:37;8.25;;;3.78;;
60851;SDS011;48553;50.766;2.900;2023-03-03T17:41:50;7.07;;;3.53;;
60851;SDS011;48553;50.766;2.900;2023-03-03T17:45:07;6.78;;;3.05;;
60851;SDS011;48553;50.766;2.900;2023-03-03T18:11:48;3.88;;;1.95;;
60851;SDS011;48553;50.766;2.900;2023-03-03T18:21:50;4.63;;;1.80;;
60851;SDS011;48553;50.766;2.900;2023-03-03T18:25:00;5.47;;;1.58;;
60851;SDS011;48553;50.766;2.900;2023-03-03T18:31:17;3.00;;;1.42;;
60851;SDS011;48553;50.766;2.900;2023-03-03T18:37:34;4.43;;;1.48;;
60851;SDS011;48553;50.766;2.900;2023-03-03T18:40:47;4.88;;;1.45;;
60851;SDS011;48553;50.766;2.900;2023-03-03T18:44:01;3.03;;;1.45;;
60851;SDS011;48553;50.766;2.900;2023-03-03T18:47:56;6.15;;;1.75;;
60851;SDS011;48553;50.766;2.900;2023-03-03T18:50:58;4.60;;;1.50;;
60851;SDS011;48553;50.766;2.900;2023-03-03T18:53:59;4.15;;;1.48;;
60851;SDS011;48553;50.766;2.900;2023-03-03T19:12:59;2.42;;;1.38;;
60851;SDS011;48553;50.766;2.900;2023-03-03T19:16:00;5.03;;;1.55;;
60851;SDS011;48553;50.766;2.900;2023-03-03T19:19:07;2.85;;;1.45;;
60851;SDS011;48553;50.766;2.900;2023-03-03T19:22:28;5.03;;;1.50;;
60851;SDS011;48553;50.766;2.900;2023-03-03T19:25:30;2.88;;;1.50;;
60851;SDS011;48553;50.766;2.900;2023-03-03T19:28:42;2.60;;;1.52;;
60851;SDS011;48553;50.766;2.900;2023-03-03T19:32:02;4.20;;;1.63;;
60851;SDS011;48553;50.766;2.900;2023-03-03T19:44:46;3.15;;;1.63;;
60851;SDS011;48553;50.766;2.900;2023-03-03T19:51:19;3.63;;;2.10;;
60851;SDS011;48553;50.766;2.900;2023-03-03T20:00:58;5.25;;;2.25;;
60851;SDS011;48553;50.766;2.900;2023-03-03T20:04:11;4.68;;;2.20;;
60851;SDS011;48553;50.766;2.900;2023-03-03T20:10:42;4.57;;;2.65;;
60851;SDS011;48553;50.766;2.900;2023-03-03T20:14:00;4.85;;;2.78;;
60851;SDS011;48553;50.766;2.900;2023-03-03T20:36:55;4.53;;;2.28;;
60851;SDS011;48553;50.766;2.900;2023-03-03T20:40:12;3.22;;;1.95;;
60851;SDS011;48553;50.766;2.900;2023-03-03T21:00:28;3.20;;;1.63;;
60851;SDS011;48553;50.766;2.900;2023-03-03T21:03:32;3.25;;;1.75;;
60851;SDS011;48553;50.766;2.900;2023-03-03T21:06:37;3.83;;;1.70;;
60851;SDS011;48553;50.766;2.900;2023-03-03T21:09:39;4.03;;;1.90;;
60851;SDS011;48553;50.766;2.900;2023-03-03T21:12:40;5.38;;;1.80;;
60851;SDS011;48553;50.766;2.900;2023-03-03T21:15:40;3.47;;;1.80;;
60851;SDS011;48553;50.766;2.900;2023-03-03T21:18:41;5.30;;;1.67;;
60851;SDS011;48553;50.766;2.900;2023-03-03T21:21:45;4.55;;;1.70;;
60851;SDS011;48553;50.766;2.900;2023-03-03T21:24:50;3.90;;;1.80;;
60851;SDS011;48553;50.766;2.900;2023-03-03T21:28:13;2.65;;;1.75;;
60851;SDS011;48553;50.766;2.900;2023-03-03T21:31:22;4.18;;;1.70;;
60851;SDS011;48553;50.766;2.900;2023-03-03T21:34:23;4.95;;;1.90;;
60851;SDS011;48553;50.766;2.900;2023-03-03T21:37:59;4.22;;;1.65;;
60851;SDS011;48553;50.766;2.900;2023-03-03T21:41:00;3.70;;;1.60;;
60851;SDS011;48553;50.766;2.900;2023-03-03T21:44:02;4.90;;;1.83;;
60851;SDS011;48553;50.766;2.900;2023-03-03T21:47:30;3.00;;;1.80;;
60851;SDS011;48553;50.766;2.900;2023-03-03T21:50:30;3.72;;;1.58;;
60851;SDS011;48553;50.766;2.900;2023-03-03T21:53:31;4.03;;;1.70;;
60851;SDS011;48553;50.766;2.900;2023-03-03T21:56:32;4.03;;;1.70;;
60851;SDS011;48553;50.766;2.900;2023-03-03T21:59:34;5.28;;;2.10;;
60851;SDS011;48553;50.766;2.900;2023-03-03T22:02:35;4.30;;;1.67;;
60851;SDS011;48553;50.766;2.900;2023-03-03T22:05:36;5.07;;;1.70;;
60851;SDS011;48553;50.766;2.900;2023-03-03T22:08:36;4.63;;;1.70;;
60851;SDS011;48553;50.766;2.900;2023-03-03T22:11:37;3.65;;;1.40;;
60851;SDS011;48553;50.766;2.900;2023-03-03T22:14:38;4.95;;;1.90;;
60851;SDS011;48553;50.766;2.900;2023-03-03T22:17:39;4.35;;;1.70;;
60851;SDS011;48553;50.766;2.900;2023-03-03T22:20:39;3.58;;;1.60;;
60851;SDS011;48553;50.766;2.900;2023-03-03T22:23:40;4.25;;;1.75;;
60851;SDS011;48553;50.766;2.900;2023-03-03T22:26:40;5.72;;;1.80;;
60851;SDS011;48553;50.766;2.900;2023-03-03T22:29:41;5.07;;;1.77;;
60851;SDS011;48553;50.766;2.900;2023-03-03T22:32:41;4.82;;;1.77;;
60851;SDS011;48553;50.766;2.900;2023-03-03T22:35:42;6.85;;;1.80;;
60851;SDS011;48553;50.766;2.900;2023-03-03T22:38:42;5.60;;;2.00;;
60851;SDS011;48553;50.766;2.900;2023-03-03T22:41:42;5.55;;;1.90;;
60851;SDS011;48553;50.766;2.900;2023-03-03T22:44:43;7.45;;;1.98;;
60851;SDS011;48553;50.766;2.900;2023-03-03T22:47:43;5.97;;;1.77;;
60851;SDS011;48553;50.766;2.900;2023-03-03T22:50:44;6.07;;;1.80;;
60851;SDS011;48553;50.766;2.900;2023-03-03T22:53:46;6.43;;;1.63;;
60851;SDS011;48553;50.766;2.900;2023-03-03T22:56:46;6.22;;;1.92;;
60851;SDS011;48553;50.766;2.900;2023-03-03T22:59:47;3.95;;;1.90;;
60851;SDS011;48553;50.766;2.900;2023-03-03T23:02:47;5.00;;;1.83;;
60851;SDS011;48553;50.766;2.900;2023-03-03T23:05:48;7.97;;;2.13;;
60851;SDS011;48553;50.766;2.900;2023-03-03T23:08:48;7.35;;;2.20;;
60851;SDS011;48553;50.766;2.900;2023-03-03T23:11:49;8.82;;;1.90;;
60851;SDS011;48553;50.766;2.900;2023-03-03T23:14:49;5.72;;;1.80;;
60851;SDS011;48553;50.766;2.900;2023-03-03T23:17:49;7.50;;;2.20;;
60851;SDS011;48553;50.766;2.900;2023-03-03T23:20:50;6.07;;;2.00;;
60851;SDS011;48553;50.766;2.900;2023-03-03T23:23:50;4.95;;;2.00;;
60851;SDS011;48553;50.766;2.900;2023-03-03T23:26:51;6.40;;;2.17;;
60851;SDS011;48553;50.766;2.900;2023-03-03T23:29:55;6.05;;;2.20;;
60851;SDS011;48553;50.766;2.900;2023-03-03T23:32:56;5.68;;;1.73;;
60851;SDS011;48553;50.766;2.900;2023-03-03T23:35:56;5.53;;;1.90;;
60851;SDS011;48553;50.766;2.900;2023-03-03T23:38:56;8.52;;;2.20;;
60851;SDS011;48553;50.766;2.900;2023-03-03T23:41:57;6.60;;;2.13;;
60851;SDS011;48553;50.766;2.900;2023-03-03T23:44:57;8.00;;;1.98;;
60851;SDS011;48553;50.766;2.900;2023-03-03T23:47:58;8.65;;;1.92;;
60851;SDS011;48553;50.766;2.900;2023-03-03T23:50:58;3.65;;;2.00;;
60851;SDS011;48553;50.766;2.900;2023-03-03T23:54:00;7.97;;;2.20;;
60851;SDS011;48553;50.766;2.900;2023-03-03T23:57:00;10.20;;;2.05;;
